createdAt,value
2019-01-12T00:00:47.243Z,6.64
2019-01-12T00:03:16.874Z,6.63
2019-01-12T00:05:46.411Z,6.60
2019-01-12T00:08:16.152Z,6.64
2019-01-12T00:10:45.939Z,6.66
2019-01-12T00:13:15.689Z,6.67
2019-01-12T00:15:45.421Z,6.68
2019-01-12T00:18:15.039Z,6.68
2019-01-12T00:20:44.642Z,6.76
2019-01-12T00:23:14.337Z,6.74
2019-01-12T00:25:43.970Z,6.73
2019-01-12T00:28:13.562Z,6.77
2019-01-12T00:30:43.188Z,6.76
2019-01-12T00:33:12.850Z,6.69
2019-01-12T00:35:42.510Z,6.65
2019-01-12T00:38:12.297Z,6.65
2019-01-12T00:40:41.819Z,6.57
2019-01-12T00:43:11.541Z,6.59
2019-01-12T00:45:41.189Z,6.51
2019-01-12T00:48:10.774Z,6.58
2019-01-12T00:50:40.858Z,6.62
2019-01-12T00:53:10.694Z,6.58
2019-01-12T00:55:40.303Z,6.56
2019-01-12T00:58:09.983Z,6.59
2019-01-12T01:00:39.692Z,6.54
2019-01-12T01:03:09.290Z,6.54
2019-01-12T01:05:38.920Z,6.52
2019-01-12T01:08:10.903Z,6.52
2019-01-12T01:10:40.573Z,6.54
2019-01-12T01:13:10.166Z,6.56
2019-01-12T01:15:39.990Z,6.61
2019-01-12T01:18:10.550Z,6.63
2019-01-12T01:20:41.758Z,6.64
2019-01-12T01:23:11.678Z,6.67
2019-01-12T01:25:41.825Z,6.70
2019-01-12T01:28:11.374Z,6.75
2019-01-12T01:30:41.231Z,6.67
2019-01-12T01:33:16.873Z,6.63
2019-01-12T01:35:56.273Z,6.70
2019-01-12T01:38:26.803Z,6.66
2019-01-12T01:40:58.512Z,6.62
2019-01-12T01:43:30.570Z,6.60
2019-01-12T01:46:15.108Z,6.56
2019-01-12T01:48:55.545Z,6.58
2019-01-12T01:52:27.148Z,6.54
2019-01-12T02:22:11.988Z,6.48
2019-01-12T02:24:45.766Z,6.46
2019-01-12T02:27:21.346Z,6.37
2019-01-12T02:29:52.175Z,6.38
2019-01-12T02:32:24.875Z,6.32
2019-01-12T02:34:55.661Z,6.27
2019-01-12T02:37:28.841Z,6.32
2019-01-12T02:39:58.662Z,6.28
2019-01-12T02:42:28.322Z,6.26
2019-01-12T02:44:58.683Z,6.27
2019-01-12T02:47:28.570Z,6.28
2019-01-12T02:49:58.320Z,6.30
2019-01-12T02:52:27.992Z,6.26
2019-01-12T02:54:57.507Z,6.29
2019-01-12T02:57:47.657Z,6.34
2019-01-12T03:00:19.540Z,6.30
2019-01-12T03:02:49.183Z,6.28
2019-01-12T03:05:18.760Z,6.27
2019-01-12T03:07:48.486Z,6.30
2019-01-12T03:10:18.936Z,6.25
2019-01-12T03:12:49.055Z,6.26
2019-01-12T03:15:21.964Z,6.35
2019-01-12T03:17:54.032Z,6.23
2019-01-12T03:20:23.544Z,6.18
2019-01-12T03:22:53.167Z,6.15
2019-01-12T03:25:22.945Z,6.12
2019-01-12T03:28:07.137Z,6.12
2019-01-12T03:30:37.254Z,6.06
2019-01-12T03:33:09.032Z,6.02
2019-01-12T03:36:00.868Z,6.08
2019-01-12T03:38:52.015Z,6.06
2019-01-12T03:41:21.702Z,6.03
2019-01-12T03:43:52.771Z,5.98
2019-01-12T03:46:34.379Z,6.00
2019-01-12T03:49:04.055Z,6.02
2019-01-12T03:51:33.767Z,6.11
2019-01-12T03:54:14.701Z,6.16
2019-01-12T03:56:44.442Z,6.15
2019-01-12T03:59:27.814Z,6.15
2019-01-12T04:02:01.114Z,6.15
2019-01-12T04:04:32.483Z,6.11
2019-01-12T04:07:04.503Z,6.07
2019-01-12T04:09:45.353Z,6.02
2019-01-12T04:12:14.973Z,6.06
2019-01-12T04:14:48.775Z,6.05
2019-01-12T04:17:18.387Z,6.00
2019-01-12T04:19:51.157Z,6.04
2019-01-12T04:22:20.860Z,6.08
2019-01-12T04:24:53.417Z,6.05
2019-01-12T04:27:24.616Z,6.00
2019-01-12T04:29:57.145Z,6.01
2019-01-12T04:32:28.941Z,6.06
2019-01-12T04:35:00.678Z,6.09
2019-01-12T04:37:31.050Z,6.10
2019-01-12T04:40:00.851Z,6.10
2019-01-12T04:42:31.662Z,6.07
2019-01-12T04:45:10.512Z,6.09
2019-01-12T04:47:40.091Z,6.02
2019-01-12T04:50:12.367Z,6.03
2019-01-12T04:52:42.312Z,6.04
2019-01-12T04:55:12.443Z,6.06
2019-01-12T04:57:42.078Z,6.09
2019-01-12T05:00:18.994Z,6.06
2019-01-12T05:02:49.247Z,6.06
2019-01-12T05:05:18.839Z,6.01
2019-01-12T05:07:49.336Z,6.13
2019-01-12T05:10:19.021Z,6.08
2019-01-12T05:12:48.601Z,5.99
2019-01-12T05:15:18.312Z,6.05
2019-01-12T05:17:48.057Z,6.01
2019-01-12T05:20:19.588Z,5.96
2019-01-12T05:22:49.503Z,5.92
2019-01-12T05:25:19.372Z,5.90
2019-01-12T05:27:49.450Z,5.88
2019-01-12T05:30:23.413Z,5.89
2019-01-12T05:32:53.100Z,5.84
2019-01-12T05:35:22.822Z,5.83
2019-01-12T05:37:52.419Z,5.79
2019-01-12T05:40:22.019Z,5.75
2019-01-12T05:42:51.734Z,5.72
2019-01-12T05:45:21.406Z,5.84
2019-01-12T05:47:51.028Z,5.83
2019-01-12T05:50:20.581Z,5.87
2019-01-12T05:52:50.460Z,5.95
2019-01-12T05:55:20.488Z,5.92
2019-01-12T05:57:50.002Z,5.89
2019-01-12T06:00:22.801Z,5.88
2019-01-12T06:02:52.529Z,5.89
2019-01-12T06:05:22.176Z,5.87
2019-01-12T06:07:52.009Z,5.82
2019-01-12T06:10:21.660Z,5.84
2019-01-12T06:12:51.470Z,5.83
2019-01-12T06:15:21.135Z,5.82
2019-01-12T06:17:50.809Z,5.80
2019-01-12T06:20:20.450Z,5.79
2019-01-12T06:22:49.980Z,5.86
2019-01-12T06:25:19.536Z,5.81
2019-01-12T06:27:49.159Z,5.82
2019-01-12T06:30:21.255Z,5.81
2019-01-12T06:32:52.632Z,5.90
2019-01-12T06:35:22.332Z,5.84
2019-01-12T06:38:00.362Z,5.83
2019-01-12T06:40:42.587Z,5.93
2019-01-12T06:43:43.113Z,5.91
2019-01-12T06:50:14.302Z,5.92
2019-01-12T06:52:55.373Z,5.91
2019-01-12T06:55:32.869Z,5.92
2019-01-12T06:58:04.005Z,5.87
2019-01-12T07:00:33.850Z,5.93
2019-01-12T07:03:03.769Z,5.98
2019-01-12T07:05:33.445Z,6.02
2019-01-12T07:08:03.111Z,5.99
2019-01-12T07:10:32.720Z,6.05
2019-01-12T07:13:02.407Z,5.96
2019-01-12T07:15:31.934Z,6.00
2019-01-12T07:18:01.569Z,5.93
2019-01-12T07:20:34.159Z,5.91
2019-01-12T07:23:03.828Z,5.92
2019-01-12T07:25:33.495Z,5.95
2019-01-12T07:28:03.197Z,5.93
2019-01-12T07:30:32.841Z,5.91
2019-01-12T07:33:02.606Z,5.89
2019-01-12T07:35:32.255Z,5.90
2019-01-12T07:38:01.909Z,5.88
2019-01-12T07:40:31.560Z,5.91
2019-01-12T07:43:01.276Z,5.93
2019-01-12T07:45:30.916Z,5.94
2019-01-12T07:48:00.650Z,5.87
2019-01-12T07:50:30.666Z,5.82
2019-01-12T07:53:00.308Z,5.93
2019-01-12T07:55:30.050Z,5.81
2019-01-12T07:57:59.728Z,5.76
2019-01-12T08:00:29.408Z,5.78
2019-01-12T08:02:58.983Z,5.79
2019-01-12T08:05:28.734Z,5.83
2019-01-12T08:08:00.703Z,5.83
2019-01-12T08:10:30.353Z,5.85
2019-01-12T08:13:00.130Z,5.85
2019-01-12T08:15:29.739Z,5.89
2019-01-12T08:18:00.453Z,5.90
2019-01-12T08:20:30.314Z,5.96
2019-01-12T08:23:02.218Z,5.95
2019-01-12T08:25:32.021Z,5.95
2019-01-12T08:28:01.845Z,6.04
2019-01-12T08:30:42.124Z,6.03
2019-01-12T08:33:34.174Z,6.05
2019-01-12T08:41:34.461Z,6.12
2019-01-12T08:42:51.051Z,6.05
2019-01-12T08:51:52.411Z,6.11
2019-01-12T08:54:59.703Z,6.10
2019-01-12T08:57:34.076Z,6.13
2019-01-12T09:00:13.513Z,6.24
2019-01-12T09:02:54.485Z,6.26
2019-01-12T09:05:24.447Z,6.29
2019-01-12T09:07:54.032Z,6.45
2019-01-12T09:10:24.168Z,6.35
2019-01-12T09:12:53.790Z,6.43
2019-01-12T09:15:24.638Z,6.50
2019-01-12T09:17:56.628Z,6.35
2019-01-12T09:20:27.745Z,6.34
2019-01-12T09:23:00.133Z,6.28
2019-01-12T09:26:03.953Z,6.14
2019-01-12T09:28:33.734Z,6.16
2019-01-12T09:31:03.527Z,6.29
2019-01-12T09:33:33.152Z,6.27
2019-01-12T09:36:02.850Z,6.27
2019-01-12T09:38:32.410Z,6.16
2019-01-12T09:41:02.267Z,6.18
2019-01-12T09:43:31.959Z,6.24
2019-01-12T09:46:01.604Z,6.33
2019-01-12T09:48:31.248Z,6.25
2019-01-12T09:51:01.009Z,6.34
2019-01-12T09:53:30.684Z,6.29
2019-01-12T09:56:00.435Z,6.28
2019-01-12T09:58:30.527Z,6.30
2019-01-12T10:01:02.608Z,6.22
2019-01-12T10:03:32.216Z,6.30
2019-01-12T10:06:01.928Z,6.08
2019-01-12T10:08:31.547Z,6.14
2019-01-12T10:11:01.235Z,6.14
2019-01-12T10:13:31.092Z,5.99
2019-01-12T10:16:00.742Z,6.01
2019-01-12T10:18:30.449Z,6.10
2019-01-12T10:21:00.010Z,6.06
2019-01-12T10:23:29.580Z,6.01
2019-01-12T10:25:59.241Z,6.08
2019-01-12T10:28:28.851Z,5.96
2019-01-12T10:30:58.509Z,6.02
2019-01-12T10:33:28.142Z,5.97
2019-01-12T10:35:57.797Z,5.93
2019-01-12T10:38:27.501Z,5.94
2019-01-12T10:40:57.663Z,5.94
2019-01-12T10:43:27.319Z,5.97
2019-01-12T10:45:57.016Z,5.94
2019-01-12T10:48:26.736Z,5.94
2019-01-12T10:50:56.274Z,5.96
2019-01-12T10:53:26.033Z,5.97
2019-01-12T10:55:55.685Z,6.02
2019-01-12T10:58:25.368Z,5.99
2019-01-12T11:00:54.894Z,5.98
2019-01-12T11:03:24.573Z,6.00
2019-01-12T11:05:54.182Z,6.08
2019-01-12T11:08:24.116Z,6.13
2019-01-12T11:10:53.787Z,6.07
2019-01-12T11:13:23.579Z,6.06
2019-01-12T11:15:53.156Z,6.20
2019-01-12T11:18:22.951Z,6.18
2019-01-12T11:20:52.735Z,6.09
2019-01-12T11:23:22.421Z,6.13
2019-01-12T11:25:52.158Z,6.27
2019-01-12T11:28:22.204Z,6.17
2019-01-12T11:30:52.299Z,6.25
2019-01-12T11:33:21.992Z,6.28
2019-01-12T11:35:51.668Z,6.37
2019-01-12T11:38:21.420Z,6.27
2019-01-12T11:40:51.023Z,6.27
2019-01-12T11:43:20.686Z,6.25
2019-01-12T11:45:50.776Z,6.34
2019-01-12T11:48:20.498Z,6.26
2019-01-12T11:50:50.219Z,6.23
2019-01-12T11:53:19.819Z,6.32
2019-01-12T11:55:49.539Z,6.25
2019-01-12T11:58:19.066Z,6.29
2019-01-12T12:00:48.643Z,6.28
2019-01-12T12:03:18.259Z,6.32
2019-01-12T12:05:48.054Z,6.27
2019-01-12T12:08:17.558Z,6.26
2019-01-12T12:10:47.207Z,6.32
2019-01-12T12:13:16.729Z,6.25
2019-01-12T12:15:47.361Z,6.28
2019-01-12T12:18:16.961Z,6.36
2019-01-12T12:20:46.552Z,6.33
2019-01-12T12:23:16.156Z,6.30
2019-01-12T12:25:45.848Z,6.39
2019-01-12T12:28:15.521Z,6.39
2019-01-12T12:30:45.268Z,6.39
2019-01-12T12:33:14.887Z,6.36
2019-01-12T12:35:44.508Z,6.38
2019-01-12T12:38:15.124Z,6.39
2019-01-12T12:40:44.851Z,6.48
2019-01-12T12:43:14.543Z,6.42
2019-01-12T12:45:48.029Z,6.35
2019-01-12T12:48:17.626Z,6.40
2019-01-12T12:50:47.317Z,6.45
2019-01-12T12:53:17.097Z,6.39
2019-01-12T12:55:46.711Z,6.44
2019-01-12T12:58:16.482Z,6.49
2019-01-12T13:00:46.251Z,6.51
2019-01-12T13:03:15.795Z,6.49
2019-01-12T13:05:45.451Z,6.49
2019-01-12T13:08:15.206Z,6.51
2019-01-12T13:10:44.916Z,6.62
2019-01-12T13:13:14.650Z,6.57
2019-01-12T13:15:46.575Z,6.57
2019-01-12T13:18:16.331Z,6.66
2019-01-12T13:20:46.033Z,6.64
2019-01-12T13:23:15.766Z,6.69
2019-01-12T13:25:45.423Z,6.69
2019-01-12T13:28:15.117Z,6.78
2019-01-12T13:30:44.625Z,6.75
2019-01-12T13:33:14.280Z,6.74
2019-01-12T13:35:43.866Z,6.74
2019-01-12T13:38:13.665Z,6.81
2019-01-12T13:40:44.108Z,6.90
2019-01-12T13:43:13.818Z,6.86
2019-01-12T13:45:43.458Z,6.89
2019-01-12T13:48:13.221Z,6.88
2019-01-12T13:50:42.762Z,6.85
2019-01-12T13:53:12.428Z,6.95
2019-01-12T13:55:42.235Z,6.95
2019-01-12T13:58:12.236Z,7.00
2019-01-12T14:00:42.086Z,7.02
2019-01-12T14:03:11.999Z,7.04
2019-01-12T14:05:41.823Z,6.98
2019-01-12T14:08:11.401Z,6.92
2019-01-12T14:10:41.160Z,6.91
2019-01-12T14:13:11.120Z,6.93
2019-01-12T14:15:40.706Z,6.89
2019-01-12T14:18:10.525Z,6.86
2019-01-12T14:20:41.938Z,6.83
2019-01-12T14:23:11.885Z,6.87
2019-01-12T14:25:41.934Z,6.87
2019-01-12T14:28:11.465Z,6.86
2019-01-12T14:30:41.435Z,6.84
2019-01-12T14:33:11.246Z,6.88
2019-01-12T14:35:41.000Z,6.86
2019-01-12T14:38:10.836Z,6.88
2019-01-12T14:40:40.621Z,6.92
2019-01-12T14:43:10.453Z,6.90
2019-01-12T14:45:40.230Z,6.94
2019-01-12T14:48:10.091Z,6.91
2019-01-12T14:50:39.911Z,6.92
2019-01-12T14:53:09.765Z,6.95
2019-01-12T14:55:39.749Z,7.07
2019-01-12T14:58:09.475Z,6.99
2019-01-12T15:00:39.489Z,6.99
2019-01-12T15:03:09.247Z,7.01
2019-01-12T15:05:39.095Z,6.99
2019-01-12T15:08:09.090Z,6.97
2019-01-12T15:10:38.941Z,7.01
2019-01-12T15:13:08.952Z,7.15
2019-01-12T15:15:39.040Z,7.14
2019-01-12T15:18:08.816Z,7.16
2019-01-12T15:20:38.469Z,7.19
2019-01-12T15:23:08.441Z,7.23
2019-01-12T15:25:38.313Z,7.23
2019-01-12T15:28:09.402Z,7.35
2019-01-12T15:30:39.800Z,7.36
2019-01-12T15:33:11.399Z,7.43
2019-01-12T15:35:42.959Z,7.47
2019-01-12T15:38:13.026Z,7.45
2019-01-12T15:40:42.947Z,7.46
2019-01-12T15:43:13.012Z,7.42
2019-01-12T15:45:42.914Z,7.46
2019-01-12T15:48:13.841Z,7.52
2019-01-12T15:50:43.691Z,7.58
2019-01-12T15:53:13.725Z,7.57
2019-01-12T15:55:43.578Z,7.55
2019-01-12T15:58:16.274Z,7.59
2019-01-12T16:00:44.912Z,7.61
2019-01-12T16:03:14.717Z,7.55
2019-01-12T16:05:44.617Z,7.60
2019-01-12T16:08:14.311Z,7.58
2019-01-12T16:10:44.251Z,7.61
2019-01-12T16:13:14.247Z,7.52
2019-01-12T16:15:44.199Z,7.43
2019-01-12T16:18:32.934Z,7.32
2019-01-12T16:21:02.902Z,7.19
2019-01-12T16:23:33.067Z,7.15
2019-01-12T16:26:03.071Z,7.16
2019-01-12T16:28:33.053Z,7.29
2019-01-12T16:31:03.230Z,7.30
2019-01-12T16:33:33.387Z,7.39
2019-01-12T16:36:03.469Z,7.41
2019-01-12T16:38:33.624Z,7.28
2019-01-12T16:41:03.673Z,7.23
2019-01-12T16:43:33.560Z,7.25
2019-01-12T16:46:03.598Z,7.24
2019-01-12T16:48:33.691Z,7.30
2019-01-12T16:51:03.793Z,7.29
2019-01-12T16:53:33.777Z,7.26
2019-01-12T16:56:03.907Z,7.22
2019-01-12T16:58:33.802Z,7.25
2019-01-12T17:01:03.812Z,7.41
2019-01-12T17:03:33.712Z,7.37
2019-01-12T17:06:03.892Z,7.36
2019-01-12T17:08:34.121Z,7.41
2019-01-12T17:11:04.245Z,7.42
2019-01-12T17:13:34.351Z,7.39
2019-01-12T17:16:04.564Z,7.34
2019-01-12T17:18:34.989Z,7.38
2019-01-12T17:21:05.293Z,7.38
2019-01-12T17:23:35.772Z,7.35
2019-01-12T17:26:06.091Z,7.39
2019-01-12T17:28:37.329Z,7.28
2019-01-12T17:31:07.638Z,7.35
2019-01-12T17:33:40.875Z,7.35
2019-01-12T17:36:11.541Z,7.28
2019-01-12T17:38:41.473Z,7.31
2019-01-12T17:41:11.551Z,7.29
2019-01-12T17:43:42.437Z,7.27
2019-01-12T17:46:12.830Z,7.29
2019-01-12T17:48:42.803Z,7.25
2019-01-12T17:51:13.027Z,7.30
2019-01-12T17:53:43.157Z,7.31
2019-01-12T17:56:13.430Z,7.26
2019-01-12T17:58:44.553Z,7.27
2019-01-12T18:01:14.735Z,7.28
2019-01-12T18:03:44.981Z,7.36
2019-01-12T18:06:15.172Z,7.36
2019-01-12T18:08:45.467Z,7.29
2019-01-12T18:11:16.584Z,7.26
2019-01-12T18:13:46.903Z,7.22
2019-01-12T18:16:19.937Z,7.20
2019-01-12T18:18:55.672Z,7.25
2019-01-12T18:21:25.892Z,7.29
2019-01-12T18:23:56.544Z,7.31
2019-01-12T18:26:28.589Z,7.38
2019-01-12T18:28:58.891Z,7.32
2019-01-12T18:31:29.060Z,7.31
2019-01-12T18:33:59.276Z,7.35
2019-01-12T18:36:29.179Z,7.42
2019-01-12T18:38:59.180Z,7.30
2019-01-12T18:41:29.418Z,7.21
2019-01-12T18:43:59.330Z,7.22
2019-01-12T18:46:29.476Z,7.01
2019-01-12T18:49:01.458Z,6.95
2019-01-12T18:51:31.617Z,6.78
2019-01-12T18:54:01.855Z,6.62
2019-01-12T18:56:31.873Z,6.43
2019-01-12T18:59:01.913Z,6.25
2019-01-12T19:01:31.889Z,6.19
2019-01-12T19:04:01.984Z,6.10
2019-01-12T19:06:32.062Z,6.16
2019-01-12T19:09:02.223Z,6.24
2019-01-12T19:11:32.401Z,6.32
2019-01-12T19:14:02.415Z,6.39
2019-01-12T19:16:32.522Z,6.52
2019-01-12T19:19:02.557Z,6.62
2019-01-12T19:21:32.639Z,6.60
2019-01-12T19:24:02.814Z,6.55
2019-01-12T19:26:32.960Z,6.60
2019-01-12T19:29:06.623Z,6.57
2019-01-12T19:31:35.087Z,6.52
2019-01-12T19:34:05.274Z,6.49
2019-01-12T19:36:35.411Z,6.57
2019-01-12T19:39:08.752Z,6.57
2019-01-12T19:41:38.755Z,6.62
2019-01-12T19:44:08.937Z,6.81
2019-01-12T19:46:38.956Z,6.79
2019-01-12T19:49:09.193Z,6.79
2019-01-12T19:51:39.306Z,6.81
2019-01-12T19:54:09.334Z,6.86
2019-01-12T19:56:39.385Z,6.86
2019-01-12T19:59:13.640Z,6.86
2019-01-12T20:01:41.173Z,6.77
2019-01-12T20:04:11.469Z,6.66
2019-01-12T20:06:41.545Z,6.74
2019-01-12T20:09:11.762Z,6.66
2019-01-12T20:11:41.842Z,6.42
2019-01-12T20:14:12.022Z,6.31
2019-01-12T20:16:42.160Z,6.30
2019-01-12T20:19:13.125Z,6.25
2019-01-12T20:21:43.380Z,6.15
2019-01-12T20:24:13.516Z,6.10
2019-01-12T20:26:43.749Z,6.08
2019-01-12T20:29:20.840Z,6.12
2019-01-12T20:32:19.339Z,6.18
2019-01-12T20:35:01.226Z,6.25
2019-01-12T20:38:18.704Z,6.57
2019-01-12T20:41:23.628Z,6.54
2019-01-12T20:44:34.281Z,6.72
2019-01-12T20:47:44.832Z,6.64
2019-01-12T20:50:39.921Z,6.67
2019-01-12T20:53:35.215Z,6.75
2019-01-12T20:56:36.602Z,6.80
2019-01-12T20:59:14.196Z,6.83
2019-01-12T21:02:25.536Z,6.81
2019-01-12T21:05:33.388Z,6.88
2019-01-12T21:08:32.693Z,6.85
2019-01-12T21:12:01.328Z,6.87
2019-01-12T21:14:44.492Z,6.86
2019-01-12T21:17:16.748Z,6.82
2019-01-12T21:19:48.302Z,6.90
2019-01-12T21:22:18.727Z,6.88
2019-01-12T21:24:48.858Z,6.81
2019-01-12T21:27:18.963Z,6.77
2019-01-12T21:29:48.872Z,6.72
2019-01-12T21:32:20.098Z,6.82
2019-01-12T21:34:50.265Z,6.85
2019-01-12T21:37:20.448Z,6.80
2019-01-12T21:39:50.505Z,6.76
2019-01-12T21:42:20.619Z,6.78
2019-01-12T21:44:50.759Z,6.75
2019-01-12T21:47:20.842Z,6.71
2019-01-12T21:49:50.805Z,6.78
2019-01-12T21:52:20.737Z,6.76
2019-01-12T21:54:52.786Z,6.80
2019-01-12T21:57:22.878Z,6.90
2019-01-12T21:59:53.076Z,6.98
2019-01-12T22:02:23.185Z,7.09
2019-01-12T22:04:53.406Z,7.13
2019-01-12T22:07:23.310Z,7.11
2019-01-12T22:09:53.516Z,7.03
2019-01-12T22:12:23.990Z,6.99
2019-01-12T22:14:53.965Z,6.92
2019-01-12T22:17:24.010Z,6.85
2019-01-12T22:19:54.016Z,6.82
2019-01-12T22:22:24.419Z,6.73
2019-01-12T22:24:54.278Z,6.74
2019-01-12T22:27:23.869Z,6.67
2019-01-12T22:29:53.822Z,6.67
2019-01-12T22:32:23.517Z,6.69
2019-01-12T22:34:53.220Z,6.77
2019-01-12T22:37:23.100Z,6.82
2019-01-12T22:39:52.710Z,6.85
2019-01-12T22:42:22.740Z,6.77
2019-01-12T22:44:52.518Z,6.71
2019-01-12T22:47:22.169Z,6.73
2019-01-12T22:49:51.903Z,6.82
2019-01-12T22:52:21.537Z,6.85
2019-01-12T22:54:52.439Z,6.94
2019-01-12T22:57:22.097Z,6.90
2019-01-12T22:59:56.928Z,6.96
2019-01-12T23:02:23.282Z,6.97
2019-01-12T23:04:53.007Z,6.98
2019-01-12T23:07:22.670Z,6.96
2019-01-12T23:09:52.304Z,6.96
2019-01-12T23:12:21.921Z,6.93
2019-01-12T23:14:51.546Z,6.93
2019-01-12T23:17:21.258Z,6.95
2019-01-12T23:19:55.065Z,6.99
2019-01-12T23:22:24.651Z,7.16
2019-01-12T23:24:54.261Z,7.07
2019-01-12T23:27:23.843Z,7.08
2019-01-12T23:29:53.483Z,7.10
2019-01-12T23:32:23.171Z,7.14
2019-01-12T23:34:52.834Z,7.13
2019-01-12T23:37:22.580Z,7.18
2019-01-12T23:39:52.157Z,7.13
2019-01-12T23:42:21.918Z,7.14
2019-01-12T23:44:51.479Z,7.14
2019-01-12T23:47:21.075Z,7.00
2019-01-12T23:49:50.688Z,6.94
2019-01-12T23:52:20.423Z,6.92
2019-01-12T23:54:50.113Z,6.93
2019-01-12T23:57:19.655Z,6.92
2019-01-12T23:59:49.176Z,6.91
